createdAt,value
2018-01-14T00:01:13.769Z,78.43
2018-01-14T00:03:41.411Z,78.64
2018-01-14T00:06:09.082Z,77.88
2018-01-14T00:08:36.678Z,78.81
2018-01-14T00:11:04.379Z,79.92
2018-01-14T00:13:31.982Z,79.07
2018-01-14T00:15:59.635Z,78.89
2018-01-14T00:18:27.234Z,79.69
2018-01-14T00:20:54.899Z,80.06
2018-01-14T00:23:22.487Z,80.76
2018-01-14T00:25:50.107Z,80.26
2018-01-14T00:28:17.696Z,80.57
2018-01-14T00:30:45.647Z,80.64
2018-01-14T00:33:13.241Z,81.71
2018-01-14T00:35:40.871Z,80.77
2018-01-14T00:38:08.463Z,80.94
2018-01-14T00:40:36.047Z,81.25
2018-01-14T00:43:03.646Z,80.85
2018-01-14T00:45:31.239Z,81.81
2018-01-14T00:47:58.862Z,80.80
2018-01-14T00:50:26.562Z,81.64
2018-01-14T00:52:54.192Z,81.56
2018-01-14T00:55:21.803Z,81.84
2018-01-14T00:57:49.440Z,82.87
2018-01-14T01:00:17.026Z,82.64
2018-01-14T01:02:44.653Z,82.82
2018-01-14T01:05:12.239Z,82.49
2018-01-14T01:07:39.840Z,82.30
2018-01-14T01:10:07.474Z,83.23
2018-01-14T01:12:35.156Z,83.46
2018-01-14T01:15:02.750Z,82.12
2018-01-14T01:17:30.340Z,82.96
2018-01-14T01:19:57.924Z,82.85
2018-01-14T01:22:25.607Z,82.84
2018-01-14T01:24:53.299Z,83.69
2018-01-14T01:27:20.938Z,83.22
2018-01-14T01:29:48.534Z,84.50
2018-01-14T01:32:16.588Z,84.77
2018-01-14T01:34:44.225Z,84.99
2018-01-14T01:37:11.812Z,84.74
2018-01-14T01:39:39.399Z,85.02
2018-01-14T01:42:06.982Z,86.20
2018-01-14T01:44:34.572Z,85.43
2018-01-14T01:47:02.334Z,85.32
2018-01-14T01:49:30.051Z,85.13
2018-01-14T01:51:57.635Z,85.62
2018-01-14T01:54:25.295Z,85.78
2018-01-14T01:56:52.920Z,84.67
2018-01-14T01:59:20.597Z,85.07
2018-01-14T02:01:48.227Z,84.05
2018-01-14T02:04:15.820Z,84.69
2018-01-14T02:06:43.440Z,84.08
2018-01-14T02:09:11.026Z,84.95
2018-01-14T02:11:38.615Z,83.97
2018-01-14T02:14:06.328Z,83.99
2018-01-14T02:16:33.911Z,83.88
2018-01-14T02:19:01.539Z,84.63
2018-01-14T02:21:29.152Z,84.40
2018-01-14T02:23:56.740Z,85.43
2018-01-14T02:26:24.359Z,84.72
2018-01-14T02:28:51.938Z,85.78
2018-01-14T02:31:19.565Z,85.56
2018-01-14T02:33:47.201Z,85.46
2018-01-14T02:36:14.804Z,84.90
2018-01-14T02:38:42.682Z,85.19
2018-01-14T02:41:10.352Z,85.91
2018-01-14T02:43:37.931Z,85.72
2018-01-14T02:46:05.579Z,86.93
2018-01-14T02:48:33.167Z,86.82
2018-01-14T02:51:00.782Z,86.13
2018-01-14T02:53:28.372Z,86.92
2018-01-14T02:55:55.986Z,86.82
2018-01-14T02:58:23.599Z,86.19
2018-01-14T03:00:51.229Z,87.28
2018-01-14T03:03:18.822Z,87.58
2018-01-14T03:05:46.473Z,86.56
2018-01-14T03:08:14.113Z,87.12
2018-01-14T03:10:41.708Z,87.23
2018-01-14T03:13:09.360Z,87.56
2018-01-14T03:15:37.144Z,87.15
2018-01-14T03:18:04.765Z,87.42
2018-01-14T03:20:32.390Z,88.07
2018-01-14T03:22:59.984Z,87.59
2018-01-14T03:25:27.617Z,87.36
2018-01-14T03:27:55.211Z,86.84
2018-01-14T03:30:22.806Z,85.96
2018-01-14T03:32:50.397Z,85.74
2018-01-14T03:35:18.007Z,87.14
2018-01-14T03:37:45.813Z,86.50
2018-01-14T03:40:13.407Z,86.38
2018-01-14T03:42:41.024Z,84.76
2018-01-14T03:45:08.696Z,86.40
2018-01-14T03:47:36.295Z,86.41
2018-01-14T03:50:03.885Z,86.17
2018-01-14T03:52:31.475Z,85.72
2018-01-14T03:54:59.067Z,87.94
2018-01-14T03:57:26.655Z,86.48
2018-01-14T03:59:54.239Z,86.33
2018-01-14T04:02:21.857Z,85.77
2018-01-14T04:04:49.482Z,86.73
2018-01-14T04:07:17.083Z,86.68
2018-01-14T04:09:44.667Z,86.58
2018-01-14T04:12:12.247Z,86.48
2018-01-14T04:14:39.832Z,86.27
2018-01-14T04:17:07.415Z,86.42
2018-01-14T04:19:35.007Z,86.63
2018-01-14T04:22:02.594Z,85.77
2018-01-14T04:24:30.244Z,86.24
2018-01-14T04:26:57.826Z,85.92
2018-01-14T04:29:25.533Z,86.79
2018-01-14T04:31:53.131Z,86.05
2018-01-14T04:34:20.758Z,86.69
2018-01-14T04:36:48.351Z,86.26
2018-01-14T04:39:15.984Z,86.47
2018-01-14T04:41:43.574Z,85.47
2018-01-14T04:44:11.163Z,86.21
2018-01-14T04:46:38.746Z,85.98
2018-01-14T04:49:06.331Z,86.06
2018-01-14T04:51:33.958Z,86.34
2018-01-14T04:54:01.543Z,86.01
2018-01-14T04:56:29.365Z,86.12
2018-01-14T04:58:57.013Z,85.75
2018-01-14T05:01:24.670Z,86.73
2018-01-14T05:03:52.394Z,85.51
2018-01-14T05:06:20.021Z,85.88
2018-01-14T05:08:47.696Z,85.96
2018-01-14T05:11:15.326Z,85.90
2018-01-14T05:13:42.906Z,86.58
2018-01-14T05:16:10.491Z,86.02
2018-01-14T05:18:38.071Z,86.79
2018-01-14T05:21:05.659Z,86.29
2018-01-14T05:23:33.246Z,86.75
2018-01-14T05:26:01.022Z,87.50
2018-01-14T05:28:28.607Z,87.87
2018-01-14T05:30:56.193Z,87.27
2018-01-14T05:33:23.808Z,87.30
2018-01-14T05:35:51.391Z,87.12
2018-01-14T05:38:19.020Z,87.28
2018-01-14T05:40:46.639Z,87.01
2018-01-14T05:43:14.223Z,87.73
2018-01-14T05:45:41.844Z,87.14
2018-01-14T05:48:09.527Z,86.77
2018-01-14T05:50:37.182Z,87.13
2018-01-14T05:53:04.769Z,86.46
2018-01-14T05:55:32.387Z,87.26
2018-01-14T05:57:59.982Z,87.39
2018-01-14T06:00:27.639Z,87.37
2018-01-14T06:02:55.219Z,87.76
2018-01-14T06:05:22.954Z,87.10
2018-01-14T06:07:50.539Z,87.51
2018-01-14T06:10:18.161Z,88.11
2018-01-14T06:12:45.747Z,88.07
2018-01-14T06:15:13.399Z,87.68
2018-01-14T06:17:40.991Z,87.60
2018-01-14T06:20:08.609Z,88.19
2018-01-14T06:22:36.435Z,88.11
2018-01-14T06:25:04.150Z,87.61
2018-01-14T06:27:31.815Z,88.57
2018-01-14T06:29:59.481Z,88.53
2018-01-14T06:32:27.148Z,88.16
2018-01-14T06:34:54.734Z,88.29
2018-01-14T06:37:22.351Z,88.99
2018-01-14T06:39:49.978Z,88.71
2018-01-14T06:42:17.599Z,88.73
2018-01-14T06:44:45.258Z,88.52
2018-01-14T06:47:12.879Z,88.22
2018-01-14T06:49:40.507Z,88.51
2018-01-14T06:52:08.105Z,88.26
2018-01-14T06:54:35.732Z,88.69
2018-01-14T06:57:03.470Z,88.18
2018-01-14T06:59:31.098Z,88.17
2018-01-14T07:01:58.726Z,88.71
2018-01-14T07:04:26.340Z,88.38
2018-01-14T07:06:53.930Z,88.56
2018-01-14T07:09:21.519Z,89.23
2018-01-14T07:11:49.207Z,88.89
2018-01-14T07:14:16.865Z,88.65
2018-01-14T07:16:44.564Z,88.83
2018-01-14T07:19:12.269Z,88.87
2018-01-14T07:21:39.859Z,88.74
2018-01-14T07:24:07.483Z,88.98
2018-01-14T07:26:35.087Z,88.55
2018-01-14T07:29:02.780Z,88.03
2018-01-14T07:31:30.449Z,88.55
2018-01-14T07:33:58.074Z,87.70
2018-01-14T07:36:25.730Z,87.87
2018-01-14T07:38:53.324Z,88.59
2018-01-14T07:41:20.947Z,89.40
2018-01-14T07:43:48.652Z,88.34
2018-01-14T07:46:16.318Z,88.50
2018-01-14T07:48:43.903Z,88.02
2018-01-14T07:51:11.485Z,87.86
2018-01-14T07:53:39.171Z,88.10
2018-01-14T07:56:06.823Z,89.28
2018-01-14T07:58:34.409Z,88.85
2018-01-14T08:01:02.122Z,87.22
2018-01-14T08:03:29.711Z,87.04
2018-01-14T08:05:57.293Z,86.19
2018-01-14T08:08:24.921Z,86.61
2018-01-14T08:10:52.508Z,86.88
2018-01-14T08:13:20.208Z,86.06
2018-01-14T08:15:47.911Z,86.68
2018-01-14T08:18:15.494Z,85.42
2018-01-14T08:20:43.172Z,85.30
2018-01-14T08:23:10.784Z,85.00
2018-01-14T08:25:38.547Z,85.49
2018-01-14T08:28:06.178Z,84.93
2018-01-14T08:30:33.809Z,85.21
2018-01-14T08:33:01.507Z,85.12
2018-01-14T08:35:29.175Z,84.04
2018-01-14T08:37:56.759Z,84.99
2018-01-14T08:40:24.350Z,83.66
2018-01-14T08:42:51.947Z,84.59
2018-01-14T08:45:24.165Z,84.26
2018-01-14T08:47:53.156Z,84.11
2018-01-14T08:50:20.741Z,83.71
2018-01-14T08:52:48.350Z,83.68
2018-01-14T08:55:15.949Z,82.40
2018-01-14T08:57:43.545Z,82.65
2018-01-14T09:00:11.126Z,82.84
2018-01-14T09:02:38.751Z,83.13
2018-01-14T09:05:07.500Z,82.09
2018-01-14T09:07:35.442Z,80.39
2018-01-14T09:10:03.078Z,81.39
2018-01-14T09:12:30.713Z,81.45
2018-01-14T09:14:58.332Z,79.11
2018-01-14T09:17:25.950Z,79.90
2018-01-14T09:19:53.542Z,80.10
2018-01-14T09:22:21.322Z,79.22
2018-01-14T09:24:49.798Z,77.24
2018-01-14T09:27:17.428Z,78.47
2018-01-14T09:29:45.038Z,77.99
2018-01-14T09:32:12.684Z,78.54
2018-01-14T09:34:40.342Z,78.53
2018-01-14T09:37:07.977Z,77.85
2018-01-14T09:39:35.602Z,77.92
2018-01-14T09:42:03.182Z,77.62
2018-01-14T09:44:31.458Z,76.11
2018-01-14T09:46:59.105Z,75.98
2018-01-14T09:49:26.682Z,75.88
2018-01-14T09:51:54.376Z,76.07
2018-01-14T09:54:22.064Z,76.42
2018-01-14T09:56:49.735Z,76.73
2018-01-14T09:59:17.318Z,75.82
2018-01-14T10:01:45.058Z,75.34
2018-01-14T10:04:12.764Z,77.54
2018-01-14T10:06:40.378Z,77.07
2018-01-14T10:09:07.972Z,76.66
2018-01-14T10:11:35.606Z,75.13
2018-01-14T10:14:03.279Z,75.50
2018-01-14T10:16:31.027Z,75.70
2018-01-14T10:18:58.626Z,75.69
2018-01-14T10:21:26.260Z,76.08
2018-01-14T10:23:54.812Z,76.40
2018-01-14T10:26:22.432Z,75.61
2018-01-14T10:28:50.019Z,74.85
2018-01-14T10:31:17.651Z,75.14
2018-01-14T10:33:45.292Z,74.96
2018-01-14T10:36:12.882Z,74.87
2018-01-14T10:38:40.504Z,75.35
2018-01-14T10:41:08.086Z,73.01
2018-01-14T10:43:37.729Z,74.29
2018-01-14T10:46:05.410Z,74.89
2018-01-14T10:48:33.114Z,74.85
2018-01-14T10:51:00.779Z,74.70
2018-01-14T10:53:28.395Z,75.04
2018-01-14T10:55:55.974Z,73.69
2018-01-14T10:58:24.542Z,74.34
2018-01-14T11:00:57.614Z,72.93
2018-01-14T11:03:25.199Z,73.98
2018-01-14T11:05:52.791Z,72.23
2018-01-14T11:08:20.452Z,73.43
2018-01-14T11:10:48.034Z,74.02
2018-01-14T11:13:15.613Z,73.29
2018-01-14T11:15:43.476Z,72.74
2018-01-14T11:18:11.071Z,72.85
2018-01-14T11:20:38.692Z,72.97
2018-01-14T11:23:06.272Z,72.81
2018-01-14T11:25:33.964Z,72.81
2018-01-14T11:28:01.544Z,72.90
2018-01-14T11:30:29.160Z,73.67
2018-01-14T11:32:56.976Z,73.79
2018-01-14T11:35:24.644Z,72.16
2018-01-14T11:37:52.302Z,72.51
2018-01-14T11:40:19.880Z,71.54
2018-01-14T11:42:47.540Z,72.39
2018-01-14T11:45:15.175Z,72.29
2018-01-14T11:47:42.750Z,72.18
2018-01-14T11:50:10.370Z,71.68
2018-01-14T11:52:37.995Z,70.99
2018-01-14T11:55:05.574Z,72.78
2018-01-14T11:57:33.151Z,72.40
2018-01-14T12:00:00.735Z,72.01
2018-01-14T12:02:28.331Z,73.41
2018-01-14T12:04:55.996Z,71.60
2018-01-14T12:07:23.647Z,71.55
2018-01-14T12:09:51.699Z,72.36
2018-01-14T12:12:19.629Z,72.35
2018-01-14T12:14:47.298Z,71.19
2018-01-14T12:17:14.880Z,72.50
2018-01-14T12:19:42.491Z,72.25
2018-01-14T12:22:10.070Z,71.56
2018-01-14T12:24:37.700Z,72.54
2018-01-14T12:27:05.279Z,73.03
2018-01-14T12:29:33.039Z,72.75
2018-01-14T12:32:00.711Z,73.20
2018-01-14T12:34:41.043Z,73.75
2018-01-14T12:37:08.622Z,73.46
2018-01-14T12:39:36.274Z,72.15
2018-01-14T12:42:03.886Z,71.54
2018-01-14T12:44:31.470Z,71.99
2018-01-14T12:46:59.161Z,71.55
2018-01-14T12:49:26.743Z,73.76
2018-01-14T12:51:54.363Z,73.21
2018-01-14T12:54:22.017Z,71.86
2018-01-14T12:56:49.702Z,72.42
2018-01-14T12:59:17.338Z,73.06
2018-01-14T13:01:44.963Z,72.87
2018-01-14T13:04:12.550Z,71.47
2018-01-14T13:06:40.227Z,71.55
2018-01-14T13:09:07.806Z,72.61
2018-01-14T13:11:35.403Z,72.72
2018-01-14T13:14:03.048Z,73.59
2018-01-14T13:16:30.643Z,74.15
2018-01-14T13:18:58.350Z,73.06
2018-01-14T13:21:25.931Z,73.58
2018-01-14T13:23:53.620Z,73.12
2018-01-14T13:26:21.347Z,73.27
2018-01-14T13:28:49.052Z,72.90
2018-01-14T13:31:16.639Z,74.81
2018-01-14T13:33:44.307Z,72.51
2018-01-14T13:36:11.921Z,73.17
2018-01-14T13:38:39.513Z,72.50
2018-01-14T13:41:07.186Z,72.90
2018-01-14T13:43:34.928Z,74.10
2018-01-14T13:46:02.514Z,75.19
2018-01-14T13:48:30.390Z,73.91
2018-01-14T13:50:58.034Z,73.82
2018-01-14T13:53:25.743Z,75.65
2018-01-14T13:55:53.547Z,74.09
2018-01-14T13:58:21.247Z,74.52
2018-01-14T14:00:48.863Z,73.90
2018-01-14T14:03:16.638Z,74.50
2018-01-14T14:05:44.261Z,74.99
2018-01-14T14:08:11.955Z,75.38
2018-01-14T14:10:39.608Z,75.21
2018-01-14T14:13:07.819Z,74.92
2018-01-14T14:15:35.423Z,75.50
2018-01-14T14:18:03.118Z,75.70
2018-01-14T14:20:30.867Z,75.64
2018-01-14T14:22:58.500Z,75.85
2018-01-14T14:25:26.103Z,76.99
2018-01-14T14:27:53.995Z,76.48
2018-01-14T14:30:21.587Z,74.84
2018-01-14T14:32:49.176Z,76.79
2018-01-14T14:35:16.774Z,76.10
2018-01-14T14:37:44.404Z,77.69
2018-01-14T14:40:12.066Z,77.70
2018-01-14T14:42:39.654Z,77.44
2018-01-14T14:45:07.388Z,76.92
2018-01-14T14:47:35.062Z,77.10
2018-01-14T14:50:02.714Z,77.62
2018-01-14T14:52:30.790Z,77.71
2018-01-14T14:54:58.528Z,78.16
2018-01-14T14:57:26.119Z,77.76
2018-01-14T14:59:53.792Z,78.88
2018-01-14T15:02:21.387Z,78.53
2018-01-14T15:04:48.982Z,78.62
2018-01-14T15:07:16.575Z,78.57
2018-01-14T15:09:44.187Z,78.39
2018-01-14T15:12:11.780Z,79.75
2018-01-14T15:14:39.745Z,79.54
2018-01-14T15:17:07.350Z,79.43
2018-01-14T15:19:34.942Z,80.06
2018-01-14T15:22:02.684Z,80.16
2018-01-14T15:24:30.288Z,79.47
2018-01-14T15:26:57.923Z,80.04
2018-01-14T15:29:25.531Z,80.40
2018-01-14T15:31:53.127Z,80.31
2018-01-14T15:34:20.961Z,80.36
2018-01-14T15:36:48.594Z,80.24
2018-01-14T15:39:16.189Z,80.35
2018-01-14T15:41:43.818Z,80.36
2018-01-14T15:44:11.424Z,80.23
2018-01-14T15:46:39.079Z,80.35
2018-01-14T15:49:06.681Z,80.27
2018-01-14T15:51:34.850Z,80.25
2018-01-14T15:54:02.446Z,80.67
2018-01-14T15:56:30.040Z,80.44
2018-01-14T15:58:57.667Z,80.62
2018-01-14T16:01:25.278Z,79.44
2018-01-14T16:03:52.912Z,80.11
2018-01-14T16:06:20.550Z,80.46
2018-01-14T16:08:48.313Z,80.12
2018-01-14T16:11:15.932Z,80.92
2018-01-14T16:13:43.538Z,80.88
2018-01-14T16:16:11.134Z,81.38
2018-01-14T16:18:38.798Z,81.15
2018-01-14T16:21:06.446Z,82.40
2018-01-14T16:23:34.077Z,81.69
2018-01-14T16:26:01.659Z,81.58
2018-01-14T16:28:29.489Z,81.69
2018-01-14T16:30:57.307Z,81.84
2018-01-14T16:33:25.025Z,82.73
2018-01-14T16:35:52.739Z,82.61
2018-01-14T16:38:20.436Z,82.44
2018-01-14T16:40:48.095Z,82.29
2018-01-14T16:43:15.726Z,82.55
2018-01-14T16:45:43.525Z,82.90
2018-01-14T16:48:11.267Z,83.37
2018-01-14T16:50:38.926Z,82.95
2018-01-14T16:53:06.590Z,83.60
2018-01-14T16:55:35.146Z,83.43
2018-01-14T16:58:02.835Z,83.21
2018-01-14T17:00:30.463Z,83.90
2018-01-14T17:02:58.093Z,84.47
2018-01-14T17:05:25.807Z,84.10
2018-01-14T17:07:53.578Z,84.31
2018-01-14T17:10:21.350Z,84.37
2018-01-14T17:12:48.942Z,84.48
2018-01-14T17:15:16.600Z,85.01
2018-01-14T17:17:46.043Z,85.16
2018-01-14T17:20:13.635Z,84.78
2018-01-14T17:22:41.307Z,85.67
2018-01-14T17:25:09.027Z,85.38
2018-01-14T17:27:36.662Z,85.02
2018-01-14T17:30:04.249Z,86.11
2018-01-14T17:32:31.855Z,87.01
2018-01-14T17:34:59.551Z,85.54
2018-01-14T17:37:27.139Z,86.37
2018-01-14T17:39:54.722Z,85.96
2018-01-14T17:42:22.307Z,87.01
2018-01-14T17:44:49.995Z,86.39
2018-01-14T17:47:17.584Z,86.80
2018-01-14T17:49:45.186Z,86.63
2018-01-14T17:52:12.850Z,86.40
2018-01-14T17:54:40.519Z,86.91
2018-01-14T17:57:08.175Z,86.34
2018-01-14T17:59:35.839Z,85.88
2018-01-14T18:02:03.427Z,85.86
2018-01-14T18:04:31.075Z,86.39
2018-01-14T18:06:58.671Z,85.82
2018-01-14T18:09:27.077Z,86.07
2018-01-14T18:11:54.768Z,85.95
2018-01-14T18:14:22.369Z,85.86
2018-01-14T18:16:59.016Z,86.65
2018-01-14T18:19:26.711Z,86.28
2018-01-14T18:21:54.306Z,85.86
2018-01-14T18:24:21.892Z,85.95
2018-01-14T18:26:49.533Z,86.06
2018-01-14T18:29:17.155Z,86.47
2018-01-14T18:31:44.783Z,85.43
2018-01-14T18:34:12.484Z,86.69
2018-01-14T18:36:40.103Z,86.19
2018-01-14T18:39:07.774Z,85.48
2018-01-14T18:41:35.379Z,85.85
2018-01-14T18:44:03.049Z,86.04
2018-01-14T18:46:30.678Z,86.05
2018-01-14T18:48:58.271Z,85.63
2018-01-14T18:51:25.890Z,85.67
2018-01-14T18:53:53.551Z,85.74
2018-01-14T18:56:23.213Z,85.55
2018-01-14T18:58:53.384Z,85.60
2018-01-14T19:01:23.230Z,85.65
2018-01-14T19:03:50.863Z,85.20
2018-01-14T19:06:18.520Z,85.23
2018-01-14T19:08:46.948Z,85.92
2018-01-14T19:11:14.571Z,84.97
2018-01-14T19:13:42.246Z,85.19
2018-01-14T19:16:09.919Z,85.63
2018-01-14T19:18:37.571Z,85.15
2018-01-14T19:21:05.159Z,85.52
2018-01-14T19:23:32.746Z,86.48
2018-01-14T19:26:00.358Z,85.95
2018-01-14T19:28:28.030Z,85.94
2018-01-14T19:30:55.713Z,86.40
2018-01-14T19:33:23.324Z,86.42
2018-01-14T19:35:50.914Z,86.15
2018-01-14T19:38:18.655Z,86.31
2018-01-14T19:40:46.259Z,86.77
2018-01-14T19:43:13.985Z,86.03
2018-01-14T19:45:41.583Z,86.59
2018-01-14T19:48:09.242Z,86.32
2018-01-14T19:50:36.838Z,86.74
2018-01-14T19:53:04.473Z,86.96
2018-01-14T19:55:33.188Z,86.94
2018-01-14T19:58:01.027Z,86.86
2018-01-14T20:00:28.664Z,87.38
2018-01-14T20:02:56.256Z,86.39
2018-01-14T20:05:24.730Z,87.14
2018-01-14T20:07:52.320Z,87.41
2018-01-14T20:10:20.069Z,87.79
2018-01-14T20:12:47.658Z,87.97
2018-01-14T20:15:15.287Z,87.68
2018-01-14T20:17:44.028Z,87.15
2018-01-14T20:20:11.655Z,86.91
2018-01-14T20:22:39.383Z,87.08
2018-01-14T20:25:07.059Z,87.67
2018-01-14T20:27:34.799Z,87.01
2018-01-14T20:30:02.513Z,87.34
2018-01-14T20:32:31.376Z,86.61
2018-01-14T20:35:00.270Z,87.17
2018-01-14T20:37:28.401Z,86.71
2018-01-14T20:39:57.359Z,87.07
2018-01-14T20:42:27.023Z,86.73
2018-01-14T20:44:55.582Z,86.61
2018-01-14T20:47:23.244Z,86.94
2018-01-14T20:49:50.980Z,87.15
2018-01-14T20:52:18.595Z,86.42
2018-01-14T20:54:46.231Z,86.61
2018-01-14T20:57:13.820Z,86.88
2018-01-14T20:59:43.340Z,86.59
2018-01-14T21:02:11.167Z,86.51
2018-01-14T21:04:38.902Z,86.61
2018-01-14T21:07:06.510Z,86.52
2018-01-14T21:09:34.367Z,86.22
2018-01-14T21:12:02.033Z,86.01
2018-01-14T21:14:30.016Z,86.40
2018-01-14T21:16:57.741Z,86.62
2018-01-14T21:19:25.577Z,86.74
2018-01-14T21:21:55.286Z,86.60
2018-01-14T21:24:23.340Z,86.32
2018-01-14T21:26:51.136Z,86.17
2018-01-14T21:29:18.970Z,86.79
2018-01-14T21:31:47.844Z,86.05
2018-01-14T21:34:15.566Z,86.59
2018-01-14T21:36:44.360Z,86.37
2018-01-14T21:39:12.728Z,86.12
2018-01-14T21:41:44.406Z,86.94
2018-01-14T21:44:14.090Z,86.01
2018-01-14T21:46:43.839Z,86.16
2018-01-14T21:49:14.500Z,86.22
2018-01-14T21:51:44.788Z,86.50
2018-01-14T21:54:12.575Z,86.28
2018-01-14T21:56:40.166Z,86.74
2018-01-14T21:59:08.039Z,85.75
2018-01-14T22:01:35.676Z,85.95
2018-01-14T22:04:03.350Z,86.59
2018-01-14T22:06:32.735Z,86.04
2018-01-14T22:09:00.395Z,86.03
2018-01-14T22:11:28.091Z,85.92
2018-01-14T22:13:55.688Z,85.34
2018-01-14T22:16:23.387Z,85.46
2018-01-14T22:18:50.975Z,85.36
2018-01-14T22:21:18.639Z,86.61
2018-01-14T22:23:46.320Z,86.79
2018-01-14T22:26:14.034Z,86.51
2018-01-14T22:28:41.730Z,87.17
2018-01-14T22:31:09.921Z,87.24
2018-01-14T22:33:37.514Z,87.17
2018-01-14T22:36:05.108Z,86.73
2018-01-14T22:38:32.696Z,87.00
2018-01-14T22:41:00.282Z,88.29
2018-01-14T22:43:27.914Z,87.95
2018-01-14T22:45:55.504Z,87.92
2018-01-14T22:48:23.091Z,87.82
2018-01-14T22:50:50.867Z,87.67
2018-01-14T22:53:18.536Z,87.49
2018-01-14T22:55:46.197Z,87.53
2018-01-14T22:58:13.863Z,88.55
2018-01-14T23:00:41.450Z,88.53
2018-01-14T23:03:09.079Z,88.63
2018-01-14T23:05:36.692Z,89.41
2018-01-14T23:08:04.279Z,88.99
2018-01-14T23:10:31.862Z,88.78
2018-01-14T23:12:59.486Z,88.70
2018-01-14T23:15:27.106Z,88.29
2018-01-14T23:17:54.732Z,88.60
2018-01-14T23:20:22.319Z,88.43
2018-01-14T23:22:49.946Z,88.78
2018-01-14T23:25:17.531Z,89.18
2018-01-14T23:27:45.118Z,89.16
2018-01-14T23:30:12.762Z,89.23
2018-01-14T23:32:40.379Z,89.58
2018-01-14T23:35:07.967Z,89.50
2018-01-14T23:37:35.595Z,90.07
2018-01-14T23:40:03.182Z,89.82
2018-01-14T23:42:30.811Z,88.93
2018-01-14T23:44:58.396Z,88.93
2018-01-14T23:47:26.095Z,89.04
2018-01-14T23:49:53.718Z,87.35
2018-01-14T23:52:21.314Z,87.15
2018-01-14T23:54:48.939Z,87.56
2018-01-14T23:57:16.531Z,86.44
2018-01-14T23:59:44.154Z,87.66
